sensor_id;sensor_type;location;lat;lon;timestamp;P1;durP1;ratioP1;P2;durP2;ratioP2
12593;SDS011;6362;50.208;9.182;2023-04-15T00:01:26;4.65;;;2.97;;
12593;SDS011;6362;50.208;9.182;2023-04-15T00:03:52;5.15;;;2.97;;
12593;SDS011;6362;50.208;9.182;2023-04-15T00:06:21;2.75;;;2.00;;
12593;SDS011;6362;50.208;9.182;2023-04-15T00:08:47;5.50;;;2.72;;
12593;SDS011;6362;50.208;9.182;2023-04-15T00:11:14;6.20;;;2.72;;
12593;SDS011;6362;50.208;9.182;2023-04-15T00:13:41;6.00;;;2.53;;
12593;SDS011;6362;50.208;9.182;2023-04-15T00:16:07;8.63;;;3.08;;
12593;SDS011;6362;50.208;9.182;2023-04-15T00:18:33;6.35;;;3.15;;
12593;SDS011;6362;50.208;9.182;2023-04-15T00:20:59;6.97;;;3.17;;
12593;SDS011;6362;50.208;9.182;2023-04-15T00:23:25;4.03;;;2.70;;
12593;SDS011;6362;50.208;9.182;2023-04-15T00:25:50;6.13;;;3.08;;
12593;SDS011;6362;50.208;9.182;2023-04-15T00:28:16;6.30;;;2.90;;
12593;SDS011;6362;50.208;9.182;2023-04-15T00:30:42;5.45;;;3.05;;
12593;SDS011;6362;50.208;9.182;2023-04-15T00:33:08;5.65;;;3.65;;
12593;SDS011;6362;50.208;9.182;2023-04-15T00:35:34;4.80;;;2.58;;
12593;SDS011;6362;50.208;9.182;2023-04-15T00:38:01;4.28;;;2.83;;
12593;SDS011;6362;50.208;9.182;2023-04-15T00:40:27;6.80;;;2.70;;
12593;SDS011;6362;50.208;9.182;2023-04-15T00:42:52;6.88;;;3.05;;
12593;SDS011;6362;50.208;9.182;2023-04-15T00:45:18;4.60;;;3.08;;
12593;SDS011;6362;50.208;9.182;2023-04-15T00:47:44;3.55;;;2.45;;
12593;SDS011;6362;50.208;9.182;2023-04-15T00:50:10;5.00;;;2.95;;
12593;SDS011;6362;50.208;9.182;2023-04-15T00:52:36;5.95;;;3.10;;
12593;SDS011;6362;50.208;9.182;2023-04-15T00:55:03;4.38;;;2.70;;
12593;SDS011;6362;50.208;9.182;2023-04-15T00:57:29;4.72;;;3.00;;
12593;SDS011;6362;50.208;9.182;2023-04-15T00:59:55;5.05;;;3.35;;
12593;SDS011;6362;50.208;9.182;2023-04-15T01:02:21;3.63;;;2.63;;
12593;SDS011;6362;50.208;9.182;2023-04-15T01:04:47;7.05;;;3.50;;
12593;SDS011;6362;50.208;9.182;2023-04-15T01:07:13;5.07;;;3.20;;
12593;SDS011;6362;50.208;9.182;2023-04-15T01:09:39;4.38;;;3.22;;
12593;SDS011;6362;50.208;9.182;2023-04-15T01:12:05;4.95;;;3.28;;
12593;SDS011;6362;50.208;9.182;2023-04-15T01:14:32;4.78;;;3.42;;
12593;SDS011;6362;50.208;9.182;2023-04-15T01:16:58;4.95;;;3.28;;
12593;SDS011;6362;50.208;9.182;2023-04-15T01:19:24;8.40;;;3.50;;
12593;SDS011;6362;50.208;9.182;2023-04-15T01:21:50;4.85;;;2.72;;
12593;SDS011;6362;50.208;9.182;2023-04-15T01:24:16;4.70;;;2.72;;
12593;SDS011;6362;50.208;9.182;2023-04-15T01:26:42;7.35;;;4.22;;
12593;SDS011;6362;50.208;9.182;2023-04-15T01:29:08;4.60;;;3.15;;
12593;SDS011;6362;50.208;9.182;2023-04-15T01:31:34;4.63;;;2.88;;
12593;SDS011;6362;50.208;9.182;2023-04-15T01:33:59;4.75;;;3.70;;
12593;SDS011;6362;50.208;9.182;2023-04-15T01:36:25;6.18;;;3.05;;
12593;SDS011;6362;50.208;9.182;2023-04-15T01:38:50;8.02;;;3.25;;
12593;SDS011;6362;50.208;9.182;2023-04-15T01:41:20;4.95;;;3.05;;
12593;SDS011;6362;50.208;9.182;2023-04-15T01:43:47;6.75;;;3.05;;
12593;SDS011;6362;50.208;9.182;2023-04-15T01:46:13;7.95;;;3.35;;
12593;SDS011;6362;50.208;9.182;2023-04-15T01:48:38;6.13;;;3.00;;
12593;SDS011;6362;50.208;9.182;2023-04-15T01:51:04;3.97;;;3.00;;
12593;SDS011;6362;50.208;9.182;2023-04-15T01:53:29;5.35;;;2.88;;
12593;SDS011;6362;50.208;9.182;2023-04-15T01:55:55;7.03;;;3.20;;
12593;SDS011;6362;50.208;9.182;2023-04-15T01:58:21;5.80;;;2.95;;
12593;SDS011;6362;50.208;9.182;2023-04-15T02:00:46;7.22;;;3.33;;
12593;SDS011;6362;50.208;9.182;2023-04-15T02:03:12;4.65;;;2.22;;
12593;SDS011;6362;50.208;9.182;2023-04-15T02:05:37;9.85;;;3.60;;
12593;SDS011;6362;50.208;9.182;2023-04-15T02:08:03;20.02;;;6.13;;
12593;SDS011;6362;50.208;9.182;2023-04-15T02:10:28;4.25;;;3.05;;
12593;SDS011;6362;50.208;9.182;2023-04-15T02:12:54;3.45;;;2.55;;
12593;SDS011;6362;50.208;9.182;2023-04-15T02:15:19;6.88;;;3.17;;
12593;SDS011;6362;50.208;9.182;2023-04-15T02:17:45;3.72;;;2.80;;
12593;SDS011;6362;50.208;9.182;2023-04-15T02:20:14;7.30;;;4.30;;
12593;SDS011;6362;50.208;9.182;2023-04-15T02:22:40;6.22;;;3.65;;
12593;SDS011;6362;50.208;9.182;2023-04-15T02:25:06;6.07;;;3.03;;
12593;SDS011;6362;50.208;9.182;2023-04-15T02:27:32;4.70;;;3.20;;
12593;SDS011;6362;50.208;9.182;2023-04-15T02:29:58;3.67;;;2.95;;
12593;SDS011;6362;50.208;9.182;2023-04-15T02:32:23;3.22;;;2.63;;
12593;SDS011;6362;50.208;9.182;2023-04-15T02:34:48;4.13;;;2.90;;
12593;SDS011;6362;50.208;9.182;2023-04-15T02:37:15;6.35;;;3.65;;
12593;SDS011;6362;50.208;9.182;2023-04-15T02:39:41;7.50;;;3.78;;
12593;SDS011;6362;50.208;9.182;2023-04-15T02:42:06;5.75;;;3.47;;
12593;SDS011;6362;50.208;9.182;2023-04-15T02:44:31;4.72;;;3.20;;
12593;SDS011;6362;50.208;9.182;2023-04-15T02:46:58;7.22;;;3.67;;
12593;SDS011;6362;50.208;9.182;2023-04-15T02:49:24;4.47;;;2.95;;
12593;SDS011;6362;50.208;9.182;2023-04-15T02:51:50;4.63;;;3.65;;
12593;SDS011;6362;50.208;9.182;2023-04-15T02:54:18;6.65;;;3.10;;
12593;SDS011;6362;50.208;9.182;2023-04-15T02:56:44;4.20;;;2.42;;
12593;SDS011;6362;50.208;9.182;2023-04-15T02:59:11;6.38;;;3.20;;
12593;SDS011;6362;50.208;9.182;2023-04-15T03:01:36;5.15;;;2.72;;
12593;SDS011;6362;50.208;9.182;2023-04-15T03:04:02;5.07;;;2.50;;
12593;SDS011;6362;50.208;9.182;2023-04-15T03:06:27;4.38;;;3.40;;
12593;SDS011;6362;50.208;9.182;2023-04-15T03:08:53;5.45;;;3.30;;
12593;SDS011;6362;50.208;9.182;2023-04-15T03:11:18;6.88;;;3.70;;
12593;SDS011;6362;50.208;9.182;2023-04-15T03:13:45;7.00;;;3.35;;
12593;SDS011;6362;50.208;9.182;2023-04-15T03:16:11;8.18;;;3.20;;
12593;SDS011;6362;50.208;9.182;2023-04-15T03:18:36;7.50;;;3.17;;
12593;SDS011;6362;50.208;9.182;2023-04-15T03:21:02;6.00;;;3.33;;
12593;SDS011;6362;50.208;9.182;2023-04-15T03:23:29;5.60;;;3.60;;
12593;SDS011;6362;50.208;9.182;2023-04-15T03:25:55;7.07;;;3.38;;
12593;SDS011;6362;50.208;9.182;2023-04-15T03:28:22;4.72;;;2.95;;
12593;SDS011;6362;50.208;9.182;2023-04-15T03:30:47;5.93;;;3.40;;
12593;SDS011;6362;50.208;9.182;2023-04-15T03:33:13;4.13;;;3.03;;
12593;SDS011;6362;50.208;9.182;2023-04-15T03:35:38;7.30;;;3.55;;
12593;SDS011;6362;50.208;9.182;2023-04-15T03:38:04;5.20;;;3.08;;
12593;SDS011;6362;50.208;9.182;2023-04-15T03:40:29;4.43;;;3.40;;
12593;SDS011;6362;50.208;9.182;2023-04-15T03:42:55;4.80;;;3.53;;
12593;SDS011;6362;50.208;9.182;2023-04-15T03:45:20;5.93;;;3.25;;
12593;SDS011;6362;50.208;9.182;2023-04-15T03:47:46;4.53;;;3.40;;
12593;SDS011;6362;50.208;9.182;2023-04-15T03:50:11;6.95;;;3.42;;
12593;SDS011;6362;50.208;9.182;2023-04-15T03:52:37;5.88;;;3.72;;
12593;SDS011;6362;50.208;9.182;2023-04-15T03:55:02;5.75;;;3.72;;
12593;SDS011;6362;50.208;9.182;2023-04-15T03:57:28;5.63;;;3.63;;
12593;SDS011;6362;50.208;9.182;2023-04-15T03:59:53;6.80;;;4.22;;
12593;SDS011;6362;50.208;9.182;2023-04-15T04:02:19;4.40;;;3.63;;
12593;SDS011;6362;50.208;9.182;2023-04-15T04:04:44;8.88;;;3.42;;
12593;SDS011;6362;50.208;9.182;2023-04-15T04:07:14;4.80;;;3.33;;
12593;SDS011;6362;50.208;9.182;2023-04-15T04:09:40;4.13;;;3.45;;
12593;SDS011;6362;50.208;9.182;2023-04-15T04:12:06;6.57;;;3.88;;
12593;SDS011;6362;50.208;9.182;2023-04-15T04:14:31;7.50;;;3.60;;
12593;SDS011;6362;50.208;9.182;2023-04-15T04:16:57;8.18;;;3.30;;
12593;SDS011;6362;50.208;9.182;2023-04-15T04:19:22;7.07;;;3.30;;
12593;SDS011;6362;50.208;9.182;2023-04-15T04:21:47;6.90;;;3.47;;
12593;SDS011;6362;50.208;9.182;2023-04-15T04:24:13;5.32;;;3.17;;
12593;SDS011;6362;50.208;9.182;2023-04-15T04:26:38;5.95;;;3.28;;
12593;SDS011;6362;50.208;9.182;2023-04-15T04:29:04;5.43;;;3.40;;
12593;SDS011;6362;50.208;9.182;2023-04-15T04:31:29;6.93;;;3.50;;
12593;SDS011;6362;50.208;9.182;2023-04-15T04:33:55;5.38;;;3.20;;
12593;SDS011;6362;50.208;9.182;2023-04-15T04:36:20;4.60;;;3.55;;
12593;SDS011;6362;50.208;9.182;2023-04-15T04:38:45;8.40;;;3.50;;
12593;SDS011;6362;50.208;9.182;2023-04-15T04:41:11;4.72;;;3.22;;
12593;SDS011;6362;50.208;9.182;2023-04-15T04:43:36;4.75;;;3.03;;
12593;SDS011;6362;50.208;9.182;2023-04-15T04:46:02;7.43;;;3.58;;
12593;SDS011;6362;50.208;9.182;2023-04-15T04:48:27;7.20;;;3.92;;
12593;SDS011;6362;50.208;9.182;2023-04-15T04:50:52;3.80;;;2.95;;
12593;SDS011;6362;50.208;9.182;2023-04-15T04:53:18;5.22;;;2.95;;
12593;SDS011;6362;50.208;9.182;2023-04-15T04:55:43;7.53;;;3.67;;
12593;SDS011;6362;50.208;9.182;2023-04-15T04:58:09;5.20;;;3.00;;
12593;SDS011;6362;50.208;9.182;2023-04-15T05:00:35;7.22;;;3.22;;
12593;SDS011;6362;50.208;9.182;2023-04-15T05:03:02;4.68;;;3.10;;
12593;SDS011;6362;50.208;9.182;2023-04-15T05:05:28;6.70;;;3.72;;
12593;SDS011;6362;50.208;9.182;2023-04-15T05:07:53;6.88;;;3.58;;
12593;SDS011;6362;50.208;9.182;2023-04-15T05:10:19;4.35;;;3.25;;
12593;SDS011;6362;50.208;9.182;2023-04-15T05:12:45;5.22;;;3.28;;
12593;SDS011;6362;50.208;9.182;2023-04-15T05:15:10;5.82;;;3.90;;
12593;SDS011;6362;50.208;9.182;2023-04-15T05:17:36;5.57;;;3.85;;
12593;SDS011;6362;50.208;9.182;2023-04-15T05:20:02;7.25;;;3.45;;
12593;SDS011;6362;50.208;9.182;2023-04-15T05:22:27;3.22;;;2.70;;
12593;SDS011;6362;50.208;9.182;2023-04-15T05:24:53;7.68;;;4.30;;
12593;SDS011;6362;50.208;9.182;2023-04-15T05:27:19;12.43;;;6.40;;
12593;SDS011;6362;50.208;9.182;2023-04-15T05:29:44;7.30;;;4.20;;
12593;SDS011;6362;50.208;9.182;2023-04-15T05:32:10;5.18;;;3.63;;
12593;SDS011;6362;50.208;9.182;2023-04-15T05:34:36;4.90;;;3.63;;
12593;SDS011;6362;50.208;9.182;2023-04-15T05:37:01;5.88;;;3.97;;
12593;SDS011;6362;50.208;9.182;2023-04-15T05:39:26;7.28;;;3.58;;
12593;SDS011;6362;50.208;9.182;2023-04-15T05:41:52;10.57;;;3.35;;
12593;SDS011;6362;50.208;9.182;2023-04-15T05:44:17;4.60;;;3.10;;
12593;SDS011;6362;50.208;9.182;2023-04-15T05:46:43;5.85;;;3.88;;
12593;SDS011;6362;50.208;9.182;2023-04-15T05:49:08;6.63;;;3.60;;
12593;SDS011;6362;50.208;9.182;2023-04-15T05:51:33;5.50;;;3.60;;
12593;SDS011;6362;50.208;9.182;2023-04-15T05:53:59;5.03;;;3.45;;
12593;SDS011;6362;50.208;9.182;2023-04-15T05:56:25;7.40;;;3.90;;
12593;SDS011;6362;50.208;9.182;2023-04-15T05:58:51;5.47;;;3.35;;
12593;SDS011;6362;50.208;9.182;2023-04-15T06:01:16;5.45;;;3.35;;
12593;SDS011;6362;50.208;9.182;2023-04-15T06:03:42;4.72;;;3.25;;
12593;SDS011;6362;50.208;9.182;2023-04-15T06:06:08;7.32;;;3.72;;
12593;SDS011;6362;50.208;9.182;2023-04-15T06:08:33;9.52;;;4.55;;
12593;SDS011;6362;50.208;9.182;2023-04-15T06:10:59;7.07;;;3.88;;
12593;SDS011;6362;50.208;9.182;2023-04-15T06:13:25;7.35;;;3.60;;
12593;SDS011;6362;50.208;9.182;2023-04-15T06:15:51;7.65;;;3.58;;
12593;SDS011;6362;50.208;9.182;2023-04-15T06:18:17;9.20;;;3.55;;
12593;SDS011;6362;50.208;9.182;2023-04-15T06:20:43;6.78;;;3.80;;
12593;SDS011;6362;50.208;9.182;2023-04-15T06:23:08;4.70;;;3.17;;
12593;SDS011;6362;50.208;9.182;2023-04-15T06:25:33;6.68;;;3.20;;
12593;SDS011;6362;50.208;9.182;2023-04-15T06:27:59;4.68;;;3.13;;
12593;SDS011;6362;50.208;9.182;2023-04-15T06:30:24;3.08;;;2.70;;
12593;SDS011;6362;50.208;9.182;2023-04-15T06:32:50;4.53;;;2.72;;
12593;SDS011;6362;50.208;9.182;2023-04-15T06:35:15;5.05;;;3.17;;
12593;SDS011;6362;50.208;9.182;2023-04-15T06:37:41;3.75;;;3.08;;
12593;SDS011;6362;50.208;9.182;2023-04-15T06:40:07;5.80;;;3.50;;
12593;SDS011;6362;50.208;9.182;2023-04-15T06:42:34;5.45;;;2.80;;
12593;SDS011;6362;50.208;9.182;2023-04-15T06:45:00;4.97;;;3.60;;
12593;SDS011;6362;50.208;9.182;2023-04-15T06:47:26;5.95;;;3.92;;
12593;SDS011;6362;50.208;9.182;2023-04-15T06:49:51;4.63;;;3.15;;
12593;SDS011;6362;50.208;9.182;2023-04-15T06:52:17;9.20;;;3.25;;
12593;SDS011;6362;50.208;9.182;2023-04-15T06:54:43;4.15;;;2.83;;
12593;SDS011;6362;50.208;9.182;2023-04-15T06:57:08;4.53;;;3.08;;
12593;SDS011;6362;50.208;9.182;2023-04-15T06:59:34;5.85;;;3.45;;
12593;SDS011;6362;50.208;9.182;2023-04-15T07:02:00;6.00;;;3.70;;
12593;SDS011;6362;50.208;9.182;2023-04-15T07:04:26;4.15;;;2.60;;
12593;SDS011;6362;50.208;9.182;2023-04-15T07:06:54;5.53;;;3.20;;
12593;SDS011;6362;50.208;9.182;2023-04-15T07:09:21;5.20;;;3.13;;
12593;SDS011;6362;50.208;9.182;2023-04-15T07:11:47;5.32;;;2.90;;
12593;SDS011;6362;50.208;9.182;2023-04-15T07:14:13;8.43;;;4.75;;
12593;SDS011;6362;50.208;9.182;2023-04-15T07:16:39;5.50;;;3.13;;
12593;SDS011;6362;50.208;9.182;2023-04-15T07:19:04;5.38;;;2.75;;
12593;SDS011;6362;50.208;9.182;2023-04-15T07:21:29;4.78;;;3.42;;
12593;SDS011;6362;50.208;9.182;2023-04-15T07:23:55;4.47;;;2.60;;
12593;SDS011;6362;50.208;9.182;2023-04-15T07:26:20;10.30;;;3.92;;
12593;SDS011;6362;50.208;9.182;2023-04-15T07:28:46;5.22;;;3.00;;
12593;SDS011;6362;50.208;9.182;2023-04-15T07:31:11;6.00;;;2.90;;
12593;SDS011;6362;50.208;9.182;2023-04-15T07:33:37;8.32;;;3.97;;
12593;SDS011;6362;50.208;9.182;2023-04-15T07:36:02;4.32;;;3.00;;
12593;SDS011;6362;50.208;9.182;2023-04-15T07:38:28;5.10;;;3.10;;
12593;SDS011;6362;50.208;9.182;2023-04-15T07:40:53;4.40;;;3.30;;
12593;SDS011;6362;50.208;9.182;2023-04-15T07:43:19;7.47;;;3.67;;
12593;SDS011;6362;50.208;9.182;2023-04-15T07:45:45;6.82;;;4.40;;
12593;SDS011;6362;50.208;9.182;2023-04-15T07:48:10;6.68;;;3.67;;
12593;SDS011;6362;50.208;9.182;2023-04-15T07:50:36;7.25;;;4.40;;
12593;SDS011;6362;50.208;9.182;2023-04-15T07:53:02;7.70;;;4.40;;
12593;SDS011;6362;50.208;9.182;2023-04-15T07:55:27;11.35;;;5.00;;
12593;SDS011;6362;50.208;9.182;2023-04-15T07:57:54;10.48;;;4.30;;
12593;SDS011;6362;50.208;9.182;2023-04-15T08:00:20;7.25;;;4.40;;
12593;SDS011;6362;50.208;9.182;2023-04-15T08:02:46;6.47;;;5.50;;
12593;SDS011;6362;50.208;9.182;2023-04-15T08:05:12;10.20;;;6.28;;
12593;SDS011;6362;50.208;9.182;2023-04-15T08:07:38;11.52;;;5.97;;
12593;SDS011;6362;50.208;9.182;2023-04-15T08:10:04;9.40;;;4.88;;
12593;SDS011;6362;50.208;9.182;2023-04-15T08:12:31;9.00;;;5.00;;
12593;SDS011;6362;50.208;9.182;2023-04-15T08:14:56;8.88;;;5.25;;
12593;SDS011;6362;50.208;9.182;2023-04-15T08:17:22;9.02;;;5.93;;
12593;SDS011;6362;50.208;9.182;2023-04-15T08:19:48;10.18;;;4.35;;
12593;SDS011;6362;50.208;9.182;2023-04-15T08:22:13;7.03;;;5.22;;
12593;SDS011;6362;50.208;9.182;2023-04-15T08:24:39;8.48;;;4.75;;
12593;SDS011;6362;50.208;9.182;2023-04-15T08:27:05;6.15;;;4.60;;
12593;SDS011;6362;50.208;9.182;2023-04-15T08:29:31;7.75;;;5.25;;
12593;SDS011;6362;50.208;9.182;2023-04-15T08:32:00;8.05;;;5.57;;
12593;SDS011;6362;50.208;9.182;2023-04-15T08:34:26;7.45;;;5.13;;
12593;SDS011;6362;50.208;9.182;2023-04-15T08:36:52;7.22;;;4.78;;
12593;SDS011;6362;50.208;9.182;2023-04-15T08:39:18;8.45;;;4.85;;
12593;SDS011;6362;50.208;9.182;2023-04-15T08:41:47;6.15;;;4.85;;
12593;SDS011;6362;50.208;9.182;2023-04-15T08:44:16;6.28;;;4.07;;
12593;SDS011;6362;50.208;9.182;2023-04-15T08:46:42;7.28;;;4.93;;
12593;SDS011;6362;50.208;9.182;2023-04-15T08:49:09;7.93;;;5.07;;
12593;SDS011;6362;50.208;9.182;2023-04-15T08:51:41;6.50;;;4.97;;
12593;SDS011;6362;50.208;9.182;2023-04-15T08:54:07;5.88;;;4.63;;
12593;SDS011;6362;50.208;9.182;2023-04-15T08:56:33;5.57;;;4.30;;
12593;SDS011;6362;50.208;9.182;2023-04-15T08:59:00;6.13;;;3.85;;
12593;SDS011;6362;50.208;9.182;2023-04-15T09:01:26;6.50;;;4.10;;
12593;SDS011;6362;50.208;9.182;2023-04-15T09:03:52;8.13;;;4.10;;
12593;SDS011;6362;50.208;9.182;2023-04-15T09:06:21;5.68;;;4.03;;
12593;SDS011;6362;50.208;9.182;2023-04-15T09:08:47;5.05;;;4.18;;
12593;SDS011;6362;50.208;9.182;2023-04-15T09:11:13;4.68;;;3.97;;
12593;SDS011;6362;50.208;9.182;2023-04-15T09:13:39;5.40;;;3.60;;
12593;SDS011;6362;50.208;9.182;2023-04-15T09:16:05;4.97;;;2.47;;
12593;SDS011;6362;50.208;9.182;2023-04-15T09:18:32;4.88;;;3.10;;
12593;SDS011;6362;50.208;9.182;2023-04-15T09:21:05;4.28;;;2.35;;
12593;SDS011;6362;50.208;9.182;2023-04-15T09:23:35;2.08;;;1.60;;
12593;SDS011;6362;50.208;9.182;2023-04-15T09:26:03;2.28;;;1.60;;
12593;SDS011;6362;50.208;9.182;2023-04-15T09:28:29;2.90;;;1.90;;
12593;SDS011;6362;50.208;9.182;2023-04-15T09:30:56;2.75;;;1.40;;
12593;SDS011;6362;50.208;9.182;2023-04-15T09:33:26;2.15;;;1.50;;
12593;SDS011;6362;50.208;9.182;2023-04-15T09:35:59;2.90;;;1.90;;
12593;SDS011;6362;50.208;9.182;2023-04-15T09:38:29;3.03;;;2.10;;
12593;SDS011;6362;50.208;9.182;2023-04-15T09:40:55;3.22;;;2.00;;
12593;SDS011;6362;50.208;9.182;2023-04-15T09:43:21;2.70;;;1.73;;
12593;SDS011;6362;50.208;9.182;2023-04-15T09:45:47;2.92;;;2.38;;
12593;SDS011;6362;50.208;9.182;2023-04-15T09:48:22;3.03;;;1.88;;
12593;SDS011;6362;50.208;9.182;2023-04-15T09:50:50;2.90;;;1.80;;
12593;SDS011;6362;50.208;9.182;2023-04-15T09:53:21;2.25;;;1.40;;
12593;SDS011;6362;50.208;9.182;2023-04-15T09:55:51;2.33;;;1.60;;
12593;SDS011;6362;50.208;9.182;2023-04-15T09:58:24;3.40;;;2.05;;
12593;SDS011;6362;50.208;9.182;2023-04-15T10:00:52;1.92;;;1.50;;
12593;SDS011;6362;50.208;9.182;2023-04-15T10:03:25;1.85;;;1.30;;
12593;SDS011;6362;50.208;9.182;2023-04-15T10:05:56;2.08;;;1.40;;
12593;SDS011;6362;50.208;9.182;2023-04-15T10:08:23;2.33;;;1.48;;
12593;SDS011;6362;50.208;9.182;2023-04-15T10:10:53;2.08;;;1.35;;
12593;SDS011;6362;50.208;9.182;2023-04-15T10:13:22;2.25;;;1.10;;
12593;SDS011;6362;50.208;9.182;2023-04-15T10:15:56;1.90;;;1.73;;
12593;SDS011;6362;50.208;9.182;2023-04-15T10:18:24;2.22;;;1.50;;
12593;SDS011;6362;50.208;9.182;2023-04-15T10:20:52;2.63;;;1.40;;
12593;SDS011;6362;50.208;9.182;2023-04-15T10:23:18;1.85;;;1.45;;
12593;SDS011;6362;50.208;9.182;2023-04-15T10:25:45;1.55;;;1.13;;
12593;SDS011;6362;50.208;9.182;2023-04-15T10:28:11;2.50;;;1.60;;
12593;SDS011;6362;50.208;9.182;2023-04-15T10:30:38;2.95;;;1.20;;
12593;SDS011;6362;50.208;9.182;2023-04-15T10:33:04;2.22;;;1.27;;
12593;SDS011;6362;50.208;9.182;2023-04-15T10:35:31;2.38;;;1.73;;
12593;SDS011;6362;50.208;9.182;2023-04-15T10:40:27;2.33;;;1.30;;
12593;SDS011;6362;50.208;9.182;2023-04-15T10:43:01;1.58;;;1.17;;
12593;SDS011;6362;50.208;9.182;2023-04-15T10:45:31;3.50;;;1.58;;
12593;SDS011;6362;50.208;9.182;2023-04-15T10:48:00;3.65;;;1.75;;
12593;SDS011;6362;50.208;9.182;2023-04-15T10:50:27;2.72;;;1.23;;
12593;SDS011;6362;50.208;9.182;2023-04-15T10:52:54;2.13;;;1.42;;
12593;SDS011;6362;50.208;9.182;2023-04-15T10:55:24;1.90;;;1.15;;
12593;SDS011;6362;50.208;9.182;2023-04-15T10:57:59;3.05;;;1.90;;
12593;SDS011;6362;50.208;9.182;2023-04-15T11:00:27;2.92;;;1.88;;
12593;SDS011;6362;50.208;9.182;2023-04-15T11:02:55;3.83;;;2.05;;
12593;SDS011;6362;50.208;9.182;2023-04-15T11:06:06;7.07;;;2.75;;
12593;SDS011;6362;50.208;9.182;2023-04-15T11:08:06;3.30;;;2.25;;
12593;SDS011;6362;50.208;9.182;2023-04-15T11:13:22;3.20;;;2.10;;
12593;SDS011;6362;50.208;9.182;2023-04-15T11:15:49;3.72;;;1.98;;
12593;SDS011;6362;50.208;9.182;2023-04-15T11:18:23;3.00;;;1.98;;
12593;SDS011;6362;50.208;9.182;2023-04-15T11:21:04;5.30;;;2.63;;
12593;SDS011;6362;50.208;9.182;2023-04-15T11:23:38;3.10;;;2.15;;
12593;SDS011;6362;50.208;9.182;2023-04-15T11:26:13;2.63;;;2.00;;
12593;SDS011;6362;50.208;9.182;2023-04-15T11:28:40;3.00;;;2.08;;
12593;SDS011;6362;50.208;9.182;2023-04-15T11:31:11;2.78;;;1.90;;
12593;SDS011;6362;50.208;9.182;2023-04-15T11:33:37;3.03;;;2.15;;
12593;SDS011;6362;50.208;9.182;2023-04-15T11:36:09;2.92;;;2.08;;
12593;SDS011;6362;50.208;9.182;2023-04-15T11:38:35;3.72;;;2.47;;
12593;SDS011;6362;50.208;9.182;2023-04-15T11:41:01;3.80;;;2.53;;
12593;SDS011;6362;50.208;9.182;2023-04-15T11:43:27;3.30;;;2.47;;
12593;SDS011;6362;50.208;9.182;2023-04-15T11:45:57;3.38;;;2.58;;
12593;SDS011;6362;50.208;9.182;2023-04-15T11:48:27;6.25;;;2.92;;
12593;SDS011;6362;50.208;9.182;2023-04-15T11:50:54;4.07;;;2.63;;
12593;SDS011;6362;50.208;9.182;2023-04-15T11:53:37;5.05;;;2.90;;
12593;SDS011;6362;50.208;9.182;2023-04-15T11:56:05;5.50;;;3.30;;
12593;SDS011;6362;50.208;9.182;2023-04-15T11:58:32;3.75;;;2.97;;
12593;SDS011;6362;50.208;9.182;2023-04-15T12:01:00;4.00;;;2.97;;
12593;SDS011;6362;50.208;9.182;2023-04-15T12:03:29;4.20;;;3.28;;
12593;SDS011;6362;50.208;9.182;2023-04-15T12:11:21;3.42;;;2.88;;
12593;SDS011;6362;50.208;9.182;2023-04-15T12:14:09;4.72;;;2.83;;
12593;SDS011;6362;50.208;9.182;2023-04-15T12:19:12;3.80;;;2.50;;
12593;SDS011;6362;50.208;9.182;2023-04-15T12:21:39;3.35;;;2.45;;
12593;SDS011;6362;50.208;9.182;2023-04-15T12:24:08;5.35;;;3.35;;
12593;SDS011;6362;50.208;9.182;2023-04-15T12:26:45;5.30;;;3.47;;
12593;SDS011;6362;50.208;9.182;2023-04-15T12:29:13;4.07;;;3.00;;
12593;SDS011;6362;50.208;9.182;2023-04-15T12:31:47;3.90;;;2.80;;
12593;SDS011;6362;50.208;9.182;2023-04-15T12:34:18;4.18;;;2.85;;
12593;SDS011;6362;50.208;9.182;2023-04-15T12:36:51;4.25;;;2.83;;
12593;SDS011;6362;50.208;9.182;2023-04-15T12:39:16;3.67;;;2.58;;
12593;SDS011;6362;50.208;9.182;2023-04-15T12:41:41;4.53;;;3.25;;
12593;SDS011;6362;50.208;9.182;2023-04-15T12:44:07;5.35;;;2.78;;
12593;SDS011;6362;50.208;9.182;2023-04-15T12:46:32;3.60;;;2.80;;
12593;SDS011;6362;50.208;9.182;2023-04-15T12:48:58;4.15;;;2.85;;
12593;SDS011;6362;50.208;9.182;2023-04-15T12:51:24;4.68;;;3.58;;
12593;SDS011;6362;50.208;9.182;2023-04-15T12:53:51;4.13;;;3.00;;
12593;SDS011;6362;50.208;9.182;2023-04-15T12:56:16;3.40;;;2.53;;
12593;SDS011;6362;50.208;9.182;2023-04-15T12:58:42;4.63;;;2.90;;
12593;SDS011;6362;50.208;9.182;2023-04-15T13:01:07;3.63;;;3.08;;
12593;SDS011;6362;50.208;9.182;2023-04-15T13:03:34;4.30;;;3.17;;
12593;SDS011;6362;50.208;9.182;2023-04-15T13:06:00;4.55;;;3.40;;
12593;SDS011;6362;50.208;9.182;2023-04-15T13:08:26;4.25;;;2.90;;
12593;SDS011;6362;50.208;9.182;2023-04-15T13:10:52;4.95;;;2.70;;
12593;SDS011;6362;50.208;9.182;2023-04-15T13:13:17;3.95;;;2.80;;
12593;SDS011;6362;50.208;9.182;2023-04-15T13:15:42;3.65;;;3.15;;
12593;SDS011;6362;50.208;9.182;2023-04-15T13:18:09;3.22;;;2.55;;
12593;SDS011;6362;50.208;9.182;2023-04-15T13:20:35;3.28;;;2.60;;
12593;SDS011;6362;50.208;9.182;2023-04-15T13:23:00;4.28;;;3.08;;
12593;SDS011;6362;50.208;9.182;2023-04-15T13:25:26;4.72;;;2.65;;
12593;SDS011;6362;50.208;9.182;2023-04-15T13:27:51;4.78;;;2.88;;
12593;SDS011;6362;50.208;9.182;2023-04-15T13:30:17;3.58;;;2.88;;
12593;SDS011;6362;50.208;9.182;2023-04-15T13:32:42;3.63;;;2.65;;
12593;SDS011;6362;50.208;9.182;2023-04-15T13:35:08;4.25;;;2.42;;
12593;SDS011;6362;50.208;9.182;2023-04-15T13:37:33;3.83;;;2.83;;
12593;SDS011;6362;50.208;9.182;2023-04-15T13:39:59;3.92;;;3.00;;
12593;SDS011;6362;50.208;9.182;2023-04-15T13:42:24;4.32;;;2.95;;
12593;SDS011;6362;50.208;9.182;2023-04-15T13:44:51;4.00;;;2.60;;
12593;SDS011;6362;50.208;9.182;2023-04-15T13:47:20;6.35;;;2.92;;
12593;SDS011;6362;50.208;9.182;2023-04-15T13:49:46;2.92;;;2.20;;
12593;SDS011;6362;50.208;9.182;2023-04-15T13:52:11;3.55;;;2.70;;
12593;SDS011;6362;50.208;9.182;2023-04-15T13:54:37;3.80;;;2.75;;
12593;SDS011;6362;50.208;9.182;2023-04-15T13:57:03;3.63;;;2.63;;
12593;SDS011;6362;50.208;9.182;2023-04-15T13:59:29;4.20;;;3.03;;
12593;SDS011;6362;50.208;9.182;2023-04-15T14:01:55;4.97;;;2.70;;
12593;SDS011;6362;50.208;9.182;2023-04-15T14:04:20;5.13;;;3.28;;
12593;SDS011;6362;50.208;9.182;2023-04-15T14:06:46;4.22;;;2.97;;
12593;SDS011;6362;50.208;9.182;2023-04-15T14:09:11;3.35;;;2.63;;
12593;SDS011;6362;50.208;9.182;2023-04-15T14:11:37;5.13;;;3.30;;
12593;SDS011;6362;50.208;9.182;2023-04-15T14:14:03;4.72;;;2.83;;
12593;SDS011;6362;50.208;9.182;2023-04-15T14:16:30;4.43;;;3.33;;
12593;SDS011;6362;50.208;9.182;2023-04-15T14:18:57;3.95;;;2.72;;
12593;SDS011;6362;50.208;9.182;2023-04-15T14:21:22;5.00;;;3.72;;
12593;SDS011;6362;50.208;9.182;2023-04-15T14:23:48;4.60;;;3.50;;
12593;SDS011;6362;50.208;9.182;2023-04-15T14:26:13;4.25;;;3.08;;
12593;SDS011;6362;50.208;9.182;2023-04-15T14:28:39;3.58;;;2.55;;
12593;SDS011;6362;50.208;9.182;2023-04-15T14:31:04;4.72;;;2.83;;
12593;SDS011;6362;50.208;9.182;2023-04-15T14:33:30;4.63;;;3.55;;
12593;SDS011;6362;50.208;9.182;2023-04-15T14:35:56;5.25;;;3.10;;
12593;SDS011;6362;50.208;9.182;2023-04-15T14:38:22;4.18;;;2.83;;
12593;SDS011;6362;50.208;9.182;2023-04-15T14:40:47;4.07;;;3.22;;
12593;SDS011;6362;50.208;9.182;2023-04-15T14:43:13;4.82;;;3.28;;
12593;SDS011;6362;50.208;9.182;2023-04-15T14:45:38;4.00;;;3.03;;
12593;SDS011;6362;50.208;9.182;2023-04-15T14:48:04;6.15;;;3.53;;
12593;SDS011;6362;50.208;9.182;2023-04-15T14:50:30;3.88;;;2.85;;
12593;SDS011;6362;50.208;9.182;2023-04-15T14:52:56;4.10;;;3.33;;
12593;SDS011;6362;50.208;9.182;2023-04-15T14:55:22;5.53;;;3.08;;
12593;SDS011;6362;50.208;9.182;2023-04-15T14:57:48;5.47;;;3.85;;
12593;SDS011;6362;50.208;9.182;2023-04-15T15:00:13;4.70;;;3.45;;
12593;SDS011;6362;50.208;9.182;2023-04-15T15:02:39;4.50;;;3.35;;
12593;SDS011;6362;50.208;9.182;2023-04-15T15:05:04;4.43;;;3.35;;
12593;SDS011;6362;50.208;9.182;2023-04-15T15:07:30;4.40;;;3.67;;
12593;SDS011;6362;50.208;9.182;2023-04-15T15:09:55;5.28;;;3.63;;